Terminal Aerodrome Forecast
Issued by NWS Melbourne, FL

Home | Current Version | Previous Version | Text Only | Print | Product List | Glossary On
Versions: 1 2 3 4 5 6 7 8 9 10 11 12 13 14 15 16 17 18 19 20 21 22 23 24 25 26 27
000
FTUS42 KMLB 282055 AAA
TAFDAB
TAF AMD
KDAB 282055Z 2821/2918 VRB04KT 6SM -RA BR SCT020 BKN040 OVC150
      TEMPO 2821/2823 4SM RA BR BKN025 OVC040
     FM282300 24009KT P6SM SCT025 SCT080 BKN250
     FM290300 23005KT P6SM SCT005 BKN250
     FM291400 25008KT P6SM VCSH SCT010 SCT025=

USA.gov is the U.S. government's official web portal to all federal, state and local government web resources and services.